x

Nantucket Sound (44020) Wave Buoy

6:50 - Tue 25th Nov 2014 All times are EST. -5 hours from GMT.

  • Sig Wave height 1.3ft
  • Swell Direction
  • Peak Period 3s
  • Average Period 3s
  • Wind
    13mph
  • Sea Temp 49°f
  • Aire Temp 51°f
  • Sea Pressure 1016mb
  • Nantucket Sound
  • Nantucket Sound

More Historic Weather Station data

Upgrade to MSW Pro to gain access to the past 30 days of data for over 8000 Wavebouys and Weather Stations around the globe.

Join Pro

Comparision Forecast

View Surf forecast
   
mar 11/25 6:50 1.3ft 3s 3s 13
mph
1016mb 49f 51f
5:50 1.3ft 11s 3s 13 16 mph 1015.3mb 49f 52f
4:50 1.3ft 10s 4s 13 16 mph 1015.1mb 49f 53f
3:50 1.3ft 3s 4s 13 16 mph 1013.6mb 49f 52f
2:50 1.3ft 10s 4s 16 18 mph 1013.8mb 49f 53f
1:50 1.3ft 10s 4s 11 13 mph 1012.8mb 50f 53f
12:50 1.6ft 9s 4s 11 13 mph 1012.8mb 50f 53f
11:50 1.6ft 9s 4s 11 13 mph 1013.2mb 49f 53f
10:50 1.3ft 5s 4s 9 11 mph 1012.8mb 49f 53f
9:50 1.6ft 3s 4s 13 16 mph 1012.9mb 49f 53f
8:50 1.3ft 3s 3s 13 16 mph 1012.2mb 49f 53f
7:50 1.3ft 4s 3s 13
mph
1011.9mb 49f 52f
6:50 1.3ft 5s 4s 13
mph
1011.1mb 49f 53f
5:50 1.3ft 4s 4s 11
mph
1010.7mb 49f 52f
4:50 1.6ft 4s 4s 13
mph
1009.7mb 49f 53f
3:50 1.6ft 3s 4s 11 13 mph 1008.9mb 49f 54f
2:50 1.6ft 4s 4s 18 22 mph 1008.8mb 49f 56f
1:50 2ft 4s 4s 16 18 mph 1009.3mb 49f 55f
12:50 2.5ft 4s 4s 18 20 mph 1008.3mb 49f 56f
lun 11/24 11:50 2.5ft 3s 3s 20 22 mph 1007.6mb 49f 57f
10:50 2.5ft 4s 3s 20 25 mph 1007.5mb 49f 56f
9:50 2ft 3s 3s 18 22 mph 1007.5mb 49f 56f
8:50 2.5ft 4s 3s 20 22 mph 1007.4mb 49f 56f
7:50 3ft 4s 3s 25 29 mph 1006.6mb 49f 57f
6:50 2.5ft 3s 3s 25 27 mph 1006mb 49f 58f
5:50 2.5ft 3s 3s 20 22 mph 1006mb 48f 55f
4:50 3ft 4s 4s 22 25 mph 1005.6mb 49f 56f
3:50 3.5ft 4s 4s 22 25 mph 1005.5mb 49f 56f
2:50 3.5ft 4s 4s 25 29 mph 1005.6mb 49f 56f
1:50 3.5ft 4s 4s 29 34 mph 1005.4mb 49f 57f
12:50 4.5ft 5s 4s 29 36 mph 1006.3mb 49f 57f
11:50 5ft 5s 4s 31 36 mph 1006.8mb 48f 57f
10:50 4.5ft 5s 4s 34 40 mph 1007.2mb 48f 56f
9:50 4.5ft 5s 4s 31 38 mph 1009.3mb 48f 56f
8:50 3.5ft 5s 4s 31 38 mph 1010.2mb 48f 56f
7:50 3.5ft 4s 4s 29 34 mph 1012.2mb 48f 55f
6:50 3.5ft 4s 4s 29 38 mph 1012.8mb 47f 56f
5:50 2.5ft 4s 3s 27 29 mph 1013.8mb 47f 56f
4:50 1.6ft 3s 3s 22 27 mph 1015.4mb 47f 54f
3:50 1ft 3s 3s 18 20 mph 1016.4mb 47f 52f
2:50 0.7ft  -  3s 16
mph
1017.8mb 48f 51f
1:50 0.7ft  -  4s 13
mph
1018.9mb 48f 50f
12:50 1ft 4s 4s 9
mph
1019.6mb 48f 50f
dom 11/23 11:50 1ft 8s 4s 7 9 mph 1020.2mb 48f 50f
10:50 1ft 4s 4s 7 9 mph 1021.1mb 48f 50f
9:50 1ft 5s 4s 9
mph
1021.3mb 48f 51f
8:50 1ft 4s 3s 7 9 mph 1021.4mb 48f 50f
7:50 1ft 3s 3s 7 9 mph 1021.8mb 47f 49f
6:50 1ft 3s 3s 9
mph
1021.8mb 48f 49f
5:50 1ft 3s 3s 4 7 mph 1021.7mb 48f 49f
4:50 1.3ft 4s 3s 11 13 mph 1021.3mb 48f 50f
3:50 1.3ft 4s 3s 11 16 mph 1021.2mb 48f 50f
2:50 1.6ft 4s 4s 13 18 mph 1021mb 48f 50f
1:50 1.6ft 4s 4s 16 18 mph 1020.5mb 48f 51f
12:50 2.5ft 4s 4s 16 20 mph 1020mb 48f 51f
11:50 2.5ft 4s 4s 20 22 mph 1020.5mb 48f 51f
10:50 2.5ft 4s  -  20 22 mph 1020.9mb 48f 51f
9:50 2.5ft 3s 3s 22 27 mph 1021.4mb 47f 51f
8:50 2.5ft 3s 3s 22 27 mph 1021.1mb 47f 51f
7:50 2.5ft 3s 3s 22 25 mph 1020.9mb 47f 50f
6:50 2.5ft 3s 3s 18 20 mph 1020.8mb 47f 50f
5:50 2.5ft 4s 4s 18 20 mph 1020.7mb 47f 49f
4:50 3.5ft 4s 4s 22 27 mph 1020.5mb 47f 50f
3:50 3.5ft 5s 4s 25 31 mph 1019.5mb 47f 50f
2:50 3.5ft 5s 4s 27 34 mph 1019.1mb 47f 50f
1:50 4ft 5s 4s 29 36 mph 1019.1mb 47f 50f
12:50 3.5ft 4s 4s 27 34 mph 1019mb 47f 50f
sáb 11/22 11:50 3.5ft 5s 4s 27 34 mph 1019.7mb 47f 50f
10:50 4ft 4s 4s 27 34 mph 1019.7mb 47f 50f
9:50 4ft 4s 4s 29 34 mph 1019.8mb 47f 49f
8:50 3.5ft 4s 4s 29 34 mph 1020.3mb 47f 49f
7:50 3.5ft 4s 4s 29 36 mph 1020.5mb 47f 48f
6:50 4ft 4s 4s 29 34 mph 1021.3mb 47f 47f
5:50 4ft 4s 4s 31 38 mph 1021.9mb 46f 46f
4:50 4ft 4s 4s 29 36 mph 1022.5mb 46f 45f
3:50 4ft 5s 4s 27 34 mph 1022.8mb 46f 44f
2:50 4.5ft 5s 4s 31 36 mph 1023.2mb 46f 44f
1:50 3.5ft 5s 4s 31 38 mph 1023.6mb 47f 44f
12:50 3.5ft 5s 4s 27 34 mph 1024.6mb 47f 44f
11:50 3ft 4s 4s 25 31 mph 1026.3mb 46f 41f
10:50 2ft 3s 3s 25 29 mph 1028.2mb 46f 40f
9:50 1.6ft 3s 3s 18 25 mph 1029.8mb 46f 37f
8:50 1.6ft 3s 3s 18 22 mph 1030.6mb 46f 36f
7:50 2.5ft 3s 3s 18 22 mph 1030.6mb 46f 34f
6:50 2ft 4s 3s 20 25 mph 1030.6mb 45f 33f
5:50 2ft 4s 3s 20 25 mph 1030.3mb 45f 32f
4:50 2.5ft 3s 3s 20 22 mph 1030.3mb 44f 31f
3:50 2.5ft 4s 4s 22 27 mph 1030.5mb 44f 31f
2:50 3ft 5s 4s 22 27 mph 1030.3mb 45f 31f
1:50 3.5ft 5s 4s 22 29 mph 1030.2mb 46f 31f